createdAt,value
2018-09-15T00:00:31.478Z,47.21
2018-09-15T00:01:06.662Z,47.69
2018-09-15T00:01:41.937Z,47.48
2018-09-15T00:02:17.271Z,47.55
2018-09-15T00:02:53.952Z,47.98
2018-09-15T00:03:29.132Z,47.58
2018-09-15T00:04:04.678Z,48.02
2018-09-15T00:04:39.856Z,47.89
2018-09-15T00:05:15.527Z,47.27
2018-09-15T00:05:51.061Z,47.60
2018-09-15T00:06:26.309Z,47.53
2018-09-15T00:07:01.508Z,48.58
2018-09-15T00:07:36.785Z,48.48
2018-09-15T00:08:12.718Z,48.46
2018-09-15T00:08:47.976Z,47.92
2018-09-15T00:09:23.388Z,48.37
2018-09-15T00:09:58.592Z,48.17
2018-09-15T00:10:33.781Z,47.64
2018-09-15T00:11:09.163Z,47.71
2018-09-15T00:11:44.474Z,47.53
2018-09-15T00:12:19.879Z,47.84
2018-09-15T00:12:55.091Z,47.86
2018-09-15T00:13:30.652Z,47.71
2018-09-15T00:14:05.807Z,47.46
2018-09-15T00:14:41.043Z,48.56
2018-09-15T00:15:16.633Z,47.88
2018-09-15T00:15:52.026Z,47.61
2018-09-15T00:16:27.191Z,47.25
2018-09-15T00:17:02.496Z,47.48
2018-09-15T00:17:38.449Z,47.88
2018-09-15T00:18:15.951Z,47.36
2018-09-15T00:18:51.406Z,47.91
2018-09-15T00:19:26.618Z,47.02
2018-09-15T00:20:01.824Z,47.21
2018-09-15T00:20:37.070Z,47.04
2018-09-15T00:21:12.443Z,47.40
2018-09-15T00:21:47.784Z,47.20
2018-09-15T00:22:23.032Z,47.29
2018-09-15T00:22:58.235Z,47.82
2018-09-15T00:23:33.403Z,46.96
2018-09-15T00:24:08.845Z,47.13
2018-09-15T00:24:44.393Z,47.27
2018-09-15T00:25:19.738Z,47.19
2018-09-15T00:25:54.905Z,47.55
2018-09-15T00:26:29.621Z,47.69
2018-09-15T00:27:04.823Z,47.83
2018-09-15T00:27:40.064Z,47.77
2018-09-15T00:28:15.675Z,47.39
2018-09-15T00:28:50.926Z,47.41
2018-09-15T00:29:26.160Z,47.66
2018-09-15T00:30:01.343Z,47.51
2018-09-15T00:30:36.529Z,47.47
2018-09-15T00:31:12.135Z,47.93
2018-09-15T00:31:47.870Z,47.67
2018-09-15T00:32:23.111Z,47.56
2018-09-15T00:32:58.485Z,47.67
2018-09-15T00:33:33.675Z,47.10
2018-09-15T00:34:08.954Z,46.90
2018-09-15T00:34:44.416Z,47.26
2018-09-15T00:35:19.899Z,47.66
2018-09-15T00:35:55.142Z,47.23
2018-09-15T00:36:29.861Z,47.86
2018-09-15T00:37:05.043Z,47.48
2018-09-15T00:37:40.234Z,47.08
2018-09-15T00:38:15.660Z,47.23
2018-09-15T00:38:51.069Z,47.41
2018-09-15T00:39:26.379Z,46.92
2018-09-15T00:40:01.603Z,46.32
2018-09-15T00:40:36.775Z,47.24
2018-09-15T00:41:12.404Z,47.10
2018-09-15T00:41:47.999Z,47.58
2018-09-15T00:42:23.459Z,47.18
2018-09-15T00:42:58.879Z,47.43
2018-09-15T00:43:34.138Z,47.42
2018-09-15T00:44:09.470Z,47.61
2018-09-15T00:44:44.897Z,47.80
2018-09-15T00:45:20.367Z,47.35
2018-09-15T00:45:55.554Z,47.67
2018-09-15T00:46:30.267Z,47.55
2018-09-15T00:47:05.495Z,47.88
2018-09-15T00:47:40.694Z,47.86
2018-09-15T00:48:16.131Z,47.67
2018-09-15T00:48:51.434Z,48.57
2018-09-15T00:49:26.654Z,47.70
2018-09-15T00:50:01.830Z,48.07
2018-09-15T00:50:37.034Z,47.57
2018-09-15T00:51:12.706Z,47.46
2018-09-15T00:51:48.059Z,47.31
2018-09-15T00:52:23.300Z,47.91
2018-09-15T00:52:58.573Z,47.52
2018-09-15T00:53:33.736Z,47.79
2018-09-15T00:54:08.895Z,47.89
2018-09-15T00:54:44.432Z,47.51
2018-09-15T00:55:20.044Z,48.14
2018-09-15T00:55:55.262Z,47.97
2018-09-15T00:56:30.418Z,48.02
2018-09-15T00:57:06.079Z,48.01
2018-09-15T00:57:41.459Z,47.89
2018-09-15T00:58:16.735Z,47.95
2018-09-15T00:58:51.985Z,47.39
2018-09-15T00:59:27.173Z,47.72
2018-09-15T01:00:02.383Z,47.33
2018-09-15T01:00:37.582Z,47.54
2018-09-15T01:01:12.917Z,47.26
2018-09-15T01:01:48.194Z,47.26
2018-09-15T01:02:23.489Z,47.42
2018-09-15T01:02:58.670Z,47.32
2018-09-15T01:03:33.839Z,47.22
2018-09-15T01:04:09.015Z,47.20
2018-09-15T01:04:44.299Z,47.56
2018-09-15T01:05:19.957Z,48.01
2018-09-15T01:05:55.179Z,47.68
2018-09-15T01:06:30.397Z,47.24
2018-09-15T01:07:05.602Z,47.64
2018-09-15T01:07:40.814Z,47.60
2018-09-15T01:08:16.481Z,47.52
2018-09-15T01:08:51.708Z,47.65
2018-09-15T01:09:26.885Z,47.56
2018-09-15T01:10:02.211Z,48.12
2018-09-15T01:10:37.480Z,47.48
2018-09-15T01:11:12.791Z,47.84
2018-09-15T01:11:48.310Z,47.47
2018-09-15T01:12:23.573Z,47.42
2018-09-15T01:12:58.785Z,47.42
2018-09-15T01:13:34.113Z,47.73
2018-09-15T01:14:09.356Z,47.89
2018-09-15T01:14:44.997Z,47.88
2018-09-15T01:15:20.380Z,48.28
2018-09-15T01:15:55.609Z,48.64
2018-09-15T01:16:30.791Z,48.53
2018-09-15T01:17:06.107Z,48.25
2018-09-15T01:17:41.330Z,49.03
2018-09-15T01:18:16.649Z,48.34
2018-09-15T01:18:51.868Z,48.21
2018-09-15T01:19:27.087Z,48.33
2018-09-15T01:20:02.306Z,48.74
2018-09-15T01:20:38.051Z,48.83
2018-09-15T01:21:13.774Z,48.61
2018-09-15T01:21:49.303Z,49.02
2018-09-15T01:22:24.733Z,49.04
2018-09-15T01:22:59.945Z,49.29
2018-09-15T01:23:35.114Z,50.06
2018-09-15T01:24:10.752Z,49.96
2018-09-15T01:24:46.348Z,51.61
2018-09-15T01:25:22.224Z,51.14
2018-09-15T01:25:57.436Z,51.13
2018-09-15T01:26:32.772Z,51.25
2018-09-15T01:27:08.386Z,50.17
2018-09-15T01:27:43.681Z,49.81
2018-09-15T01:28:19.149Z,49.92
2018-09-15T01:28:54.317Z,50.23
2018-09-15T01:29:29.645Z,50.71
2018-09-15T01:30:04.905Z,50.97
2018-09-15T01:30:40.071Z,50.30
2018-09-15T01:31:15.330Z,50.81
2018-09-15T01:31:50.577Z,50.93
2018-09-15T01:32:27.485Z,50.77
2018-09-15T01:33:02.630Z,51.47
2018-09-15T01:33:37.799Z,51.46
2018-09-15T01:34:13.386Z,51.33
2018-09-15T01:34:48.948Z,51.59
2018-09-15T01:35:24.308Z,51.69
2018-09-15T01:35:59.482Z,52.03
2018-09-15T01:36:34.725Z,51.90
2018-09-15T01:37:09.977Z,52.42
2018-09-15T01:37:45.349Z,52.62
2018-09-15T01:38:20.804Z,52.54
2018-09-15T01:38:56.014Z,52.44
2018-09-15T01:39:31.186Z,52.58
2018-09-15T01:40:06.366Z,52.78
2018-09-15T01:40:41.900Z,52.56
2018-09-15T01:41:17.247Z,52.69
2018-09-15T01:41:52.500Z,52.43
2018-09-15T01:42:27.689Z,52.03
2018-09-15T01:43:02.889Z,52.25
2018-09-15T01:43:38.055Z,52.74
2018-09-15T01:44:13.825Z,52.40
2018-09-15T01:44:49.347Z,52.46
2018-09-15T01:45:24.664Z,52.27
2018-09-15T01:45:59.838Z,52.48
2018-09-15T01:46:35.069Z,53.21
2018-09-15T01:47:10.284Z,52.54
2018-09-15T01:47:45.592Z,53.26
2018-09-15T01:48:20.850Z,52.92
2018-09-15T01:48:56.111Z,52.91
2018-09-15T01:49:31.506Z,52.66
2018-09-15T01:50:06.734Z,53.15
2018-09-15T01:50:41.451Z,52.66
2018-09-15T01:51:16.772Z,52.94
2018-09-15T01:51:52.095Z,53.23
2018-09-15T01:52:27.405Z,53.17
2018-09-15T01:53:02.959Z,53.17
2018-09-15T01:53:38.114Z,53.14
2018-09-15T01:54:13.314Z,52.42
2018-09-15T01:54:48.932Z,52.99
2018-09-15T01:55:24.641Z,53.29
2018-09-15T01:55:59.856Z,52.87
2018-09-15T01:56:35.067Z,52.85
2018-09-15T01:57:10.262Z,52.99
2018-09-15T01:57:45.443Z,52.93
2018-09-15T01:58:21.203Z,53.41
2018-09-15T01:58:56.815Z,52.78
2018-09-15T01:59:32.123Z,53.09
2018-09-15T02:00:07.376Z,53.03
2018-09-15T02:00:42.741Z,52.76
2018-09-15T02:01:17.966Z,53.43
2018-09-15T02:01:53.408Z,53.64
2018-09-15T02:02:28.682Z,53.63
2018-09-15T02:03:04.502Z,53.27
2018-09-15T02:03:39.325Z,53.53
2018-09-15T02:04:14.511Z,53.47
2018-09-15T02:04:49.903Z,53.08
2018-09-15T02:05:25.178Z,53.31
2018-09-15T02:06:00.715Z,53.21
2018-09-15T02:06:35.883Z,53.30
2018-09-15T02:07:11.110Z,53.22
2018-09-15T02:07:46.415Z,53.49
2018-09-15T02:08:22.005Z,53.44
2018-09-15T02:08:57.367Z,52.82
2018-09-15T02:09:32.635Z,53.10
2018-09-15T02:10:08.169Z,52.82
2018-09-15T02:10:43.360Z,53.17
2018-09-15T02:11:18.782Z,53.20
2018-09-15T02:11:54.064Z,52.95
2018-09-15T02:12:29.683Z,53.35
2018-09-15T02:13:04.864Z,53.13
2018-09-15T02:13:40.066Z,53.20
2018-09-15T02:14:15.238Z,53.10
2018-09-15T02:14:50.964Z,53.11
2018-09-15T02:15:26.271Z,53.27
2018-09-15T02:16:01.498Z,53.29
2018-09-15T02:16:37.062Z,53.76
2018-09-15T02:17:12.244Z,53.40
2018-09-15T02:17:47.463Z,53.53
2018-09-15T02:18:22.934Z,53.50
2018-09-15T02:18:58.338Z,53.41
2018-09-15T02:19:33.509Z,53.72
2018-09-15T02:20:08.643Z,53.58
2018-09-15T02:20:43.835Z,53.35
2018-09-15T02:21:19.294Z,53.31
2018-09-15T02:21:54.622Z,53.00
2018-09-15T02:22:30.221Z,53.38
2018-09-15T02:23:05.717Z,53.30
2018-09-15T02:23:41.109Z,53.14
2018-09-15T02:24:16.285Z,52.95
2018-09-15T02:24:51.770Z,52.52
2018-09-15T02:25:27.301Z,52.68
2018-09-15T02:26:02.503Z,52.53
2018-09-15T02:26:37.698Z,53.16
2018-09-15T02:27:12.861Z,52.51
2018-09-15T02:27:48.214Z,52.39
2018-09-15T02:28:23.648Z,52.20
2018-09-15T02:28:58.969Z,51.91
2018-09-15T02:29:34.308Z,51.45
2018-09-15T02:30:09.522Z,51.07
2018-09-15T02:30:44.698Z,51.40
2018-09-15T02:31:20.305Z,50.28
2018-09-15T02:31:55.758Z,50.38
2018-09-15T02:32:31.115Z,49.76
2018-09-15T02:33:06.358Z,49.32
2018-09-15T02:33:41.672Z,49.29
2018-09-15T02:34:17.278Z,49.74
2018-09-15T02:34:52.707Z,50.08
2018-09-15T02:35:28.146Z,50.56
2018-09-15T02:36:03.595Z,50.72
2018-09-15T02:36:38.876Z,50.58
2018-09-15T02:37:14.402Z,50.59
2018-09-15T02:37:49.823Z,50.06
2018-09-15T02:38:25.187Z,50.46
2018-09-15T02:39:00.498Z,50.41
2018-09-15T02:39:35.691Z,50.54
2018-09-15T02:40:10.899Z,50.41
2018-09-15T02:40:46.181Z,50.80
2018-09-15T02:41:21.590Z,51.09
2018-09-15T02:41:57.096Z,50.86
2018-09-15T02:42:32.489Z,50.85
2018-09-15T02:43:07.658Z,50.84
2018-09-15T02:43:42.879Z,50.81
2018-09-15T02:44:18.746Z,50.96
2018-09-15T02:44:54.165Z,50.83
2018-09-15T02:45:29.418Z,50.80
2018-09-15T02:46:04.633Z,50.69
2018-09-15T02:46:40.204Z,51.05
2018-09-15T02:47:15.401Z,50.99
2018-09-15T02:47:50.756Z,51.27
2018-09-15T02:48:26.112Z,51.32
2018-09-15T02:49:01.311Z,51.20
2018-09-15T02:49:36.531Z,51.17
2018-09-15T02:50:11.731Z,51.16
2018-09-15T02:50:46.961Z,51.04
2018-09-15T02:51:22.214Z,51.37
2018-09-15T02:51:57.439Z,50.85
2018-09-15T02:52:32.616Z,50.92
2018-09-15T02:53:07.834Z,51.40
2018-09-15T02:53:43.532Z,51.39
2018-09-15T02:54:18.781Z,51.61
2018-09-15T02:54:54.131Z,51.74
2018-09-15T02:55:29.787Z,52.32
2018-09-15T02:56:05.358Z,51.94
2018-09-15T02:56:40.560Z,52.18
2018-09-15T02:57:15.795Z,52.04
2018-09-15T02:57:51.347Z,51.81
2018-09-15T02:58:26.769Z,52.04
2018-09-15T02:59:01.997Z,52.39
2018-09-15T02:59:37.190Z,52.55
2018-09-15T03:00:12.423Z,52.53
2018-09-15T03:00:47.747Z,52.33
2018-09-15T03:01:23.132Z,52.55
2018-09-15T03:01:58.555Z,52.82
2018-09-15T03:02:34.279Z,52.82
2018-09-15T03:03:10.346Z,52.87
2018-09-15T03:03:45.805Z,53.20
2018-09-15T03:04:21.330Z,52.40
2018-09-15T03:04:57.014Z,52.65
2018-09-15T03:05:32.209Z,53.15
2018-09-15T03:06:07.394Z,53.28
2018-09-15T03:06:42.595Z,53.54
2018-09-15T03:07:17.811Z,53.82
2018-09-15T03:07:53.366Z,53.49
2018-09-15T03:08:28.640Z,53.25
2018-09-15T03:09:04.208Z,53.19
2018-09-15T03:09:39.391Z,52.97
2018-09-15T03:10:14.557Z,53.28
2018-09-15T03:10:50.065Z,53.15
2018-09-15T03:11:25.594Z,53.17
2018-09-15T03:12:00.980Z,53.29
2018-09-15T03:12:36.183Z,53.04
2018-09-15T03:13:11.399Z,53.24
2018-09-15T03:13:46.578Z,52.89
2018-09-15T03:14:21.932Z,53.16
2018-09-15T03:14:57.257Z,53.36
2018-09-15T03:15:32.452Z,53.47
2018-09-15T03:16:07.647Z,53.64
2018-09-15T03:16:42.864Z,53.13
2018-09-15T03:17:18.612Z,53.86
2018-09-15T03:17:53.936Z,53.65
2018-09-15T03:18:29.342Z,53.96
2018-09-15T03:19:04.529Z,53.28
2018-09-15T03:19:39.719Z,53.46
2018-09-15T03:20:14.911Z,53.99
2018-09-15T03:20:50.418Z,53.84
2018-09-15T03:21:25.934Z,54.16
2018-09-15T03:22:01.417Z,53.47
2018-09-15T03:22:36.653Z,53.36
2018-09-15T03:23:11.818Z,53.26
2018-09-15T03:23:47.071Z,53.72
2018-09-15T03:24:22.588Z,53.32
2018-09-15T03:24:57.840Z,53.18
2018-09-15T03:25:33.037Z,52.95
2018-09-15T03:26:08.230Z,52.73
2018-09-15T03:26:43.447Z,52.94
2018-09-15T03:27:19.034Z,53.18
2018-09-15T03:27:54.411Z,53.05
2018-09-15T03:28:29.646Z,53.35
2018-09-15T03:29:04.827Z,53.02
2018-09-15T03:29:40.018Z,52.35
2018-09-15T03:30:15.249Z,52.29
2018-09-15T03:30:50.908Z,52.74
2018-09-15T03:31:26.142Z,52.53
2018-09-15T03:32:01.366Z,52.99
2018-09-15T03:32:36.745Z,52.83
2018-09-15T03:33:11.929Z,52.96
2018-09-15T03:33:47.389Z,53.00
2018-09-15T03:34:22.878Z,53.37
2018-09-15T03:34:58.226Z,53.14
2018-09-15T03:35:33.438Z,52.97
2018-09-15T03:36:08.632Z,53.47
2018-09-15T03:36:43.843Z,53.40
2018-09-15T03:37:19.196Z,53.10
2018-09-15T03:37:54.688Z,52.90
2018-09-15T03:38:30.181Z,52.75
2018-09-15T03:39:07.859Z,52.91
2018-09-15T03:39:43.090Z,53.23
2018-09-15T03:40:18.373Z,53.39
2018-09-15T03:40:53.731Z,53.02
2018-09-15T03:41:29.175Z,53.30
2018-09-15T03:42:04.561Z,53.30
2018-09-15T03:42:39.742Z,53.41
2018-09-15T03:43:15.045Z,53.16
2018-09-15T03:43:50.582Z,53.41
2018-09-15T03:44:26.333Z,53.04
2018-09-15T03:45:01.602Z,53.27
2018-09-15T03:45:36.823Z,53.02
2018-09-15T03:46:12.024Z,53.27
2018-09-15T03:46:47.601Z,52.93
2018-09-15T03:47:22.926Z,52.85
2018-09-15T03:47:58.234Z,52.32
2018-09-15T03:48:33.406Z,52.71
2018-09-15T03:49:08.992Z,52.77
2018-09-15T03:49:44.409Z,53.08
2018-09-15T03:50:19.973Z,53.17
2018-09-15T03:50:55.416Z,53.16
2018-09-15T03:51:30.740Z,53.27
2018-09-15T03:52:05.962Z,53.17
2018-09-15T03:52:41.243Z,53.20
2018-09-15T03:53:16.592Z,53.41
2018-09-15T03:53:51.867Z,53.66
2018-09-15T03:54:27.297Z,53.42
2018-09-15T03:55:02.522Z,53.18
2018-09-15T03:55:37.702Z,53.07
2018-09-15T03:56:12.922Z,53.29
2018-09-15T03:56:48.579Z,53.45
2018-09-15T03:57:23.840Z,53.45
2018-09-15T03:57:59.166Z,53.53
2018-09-15T03:58:34.570Z,53.85
2018-09-15T03:59:09.779Z,53.08
2018-09-15T03:59:44.951Z,53.42
2018-09-15T04:00:20.357Z,53.31
2018-09-15T04:00:55.935Z,53.69
2018-09-15T04:01:31.159Z,53.29
2018-09-15T04:02:06.361Z,53.20
2018-09-15T04:02:41.595Z,53.55
2018-09-15T04:03:17.371Z,53.64
2018-09-15T04:03:52.663Z,53.47
2018-09-15T04:04:27.934Z,53.68
2018-09-15T04:05:03.108Z,53.74
2018-09-15T04:05:38.308Z,53.52
2018-09-15T04:06:13.522Z,53.43
2018-09-15T04:06:48.901Z,53.63
2018-09-15T04:07:24.276Z,53.55
2018-09-15T04:07:59.551Z,53.44
2018-09-15T04:08:34.777Z,53.63
2018-09-15T04:09:11.186Z,53.85
2018-09-15T04:09:46.387Z,53.62
2018-09-15T04:10:21.837Z,53.88
2018-09-15T04:10:57.112Z,53.98
2018-09-15T04:11:32.349Z,54.10
2018-09-15T04:12:07.728Z,53.97
2018-09-15T04:12:43.478Z,53.65
2018-09-15T04:13:19.156Z,54.05
2018-09-15T04:13:54.572Z,53.85
2018-09-15T04:14:29.779Z,54.13
2018-09-15T04:15:05.385Z,53.86
2018-09-15T04:15:40.770Z,54.07
2018-09-15T04:16:15.957Z,54.21
2018-09-15T04:16:51.405Z,54.13
2018-09-15T04:17:26.730Z,54.14
2018-09-15T04:18:02.218Z,53.87
2018-09-15T04:18:37.842Z,54.46
2018-09-15T04:19:13.104Z,54.13
2018-09-15T04:19:48.339Z,54.06
2018-09-15T04:20:23.684Z,53.87
2018-09-15T04:20:58.890Z,53.75
2018-09-15T04:21:34.108Z,53.70
2018-09-15T04:22:09.278Z,53.39
2018-09-15T04:22:43.946Z,53.48
2018-09-15T04:23:19.573Z,53.93
2018-09-15T04:23:54.839Z,53.60
2018-09-15T04:24:30.034Z,54.05
2018-09-15T04:25:05.557Z,53.57
2018-09-15T04:25:40.882Z,54.14
2018-09-15T04:26:15.574Z,54.46
2018-09-15T04:26:50.394Z,54.14
2018-09-15T04:27:25.326Z,54.02
2018-09-15T04:28:00.581Z,54.31
2018-09-15T04:28:35.916Z,53.78
2018-09-15T04:29:11.271Z,54.27
2018-09-15T04:29:46.498Z,53.99
2018-09-15T04:30:21.927Z,53.95
2018-09-15T04:30:57.369Z,54.56
2018-09-15T04:31:32.655Z,54.61
2018-09-15T04:32:07.890Z,54.32
2018-09-15T04:32:43.245Z,54.50
2018-09-15T04:33:18.706Z,54.37
2018-09-15T04:33:54.012Z,54.03
2018-09-15T04:34:29.364Z,54.71
2018-09-15T04:35:04.712Z,54.25
2018-09-15T04:35:40.178Z,54.15
2018-09-15T04:36:15.725Z,54.24
2018-09-15T04:36:51.133Z,54.29
2018-09-15T04:37:26.539Z,54.21
2018-09-15T04:38:01.770Z,54.12
2018-09-15T04:38:36.969Z,54.06
2018-09-15T04:39:12.889Z,53.85
2018-09-15T04:39:48.074Z,54.02
2018-09-15T04:40:23.471Z,54.06
2018-09-15T04:40:58.855Z,54.31
2018-09-15T04:41:41.289Z,54.10
2018-09-15T04:42:16.612Z,54.11
2018-09-15T04:42:52.056Z,54.34
2018-09-15T04:43:27.405Z,54.53
2018-09-15T04:44:02.562Z,54.13
2018-09-15T04:44:37.759Z,54.09
2018-09-15T04:45:12.989Z,54.04
2018-09-15T04:45:48.302Z,54.63
2018-09-15T04:46:23.716Z,54.72
2018-09-15T04:46:59.055Z,54.56
2018-09-15T04:47:34.230Z,54.32
2018-09-15T04:48:09.454Z,54.85
2018-09-15T04:48:44.637Z,54.50
2018-09-15T04:49:19.990Z,54.56
2018-09-15T04:49:55.336Z,54.93
2018-09-15T04:50:30.616Z,54.93
2018-09-15T04:51:06.202Z,54.66
2018-09-15T04:51:41.394Z,54.79
2018-09-15T04:52:16.584Z,54.95
2018-09-15T04:52:51.830Z,54.94
2018-09-15T04:53:27.116Z,55.47
2018-09-15T04:54:02.428Z,54.92
2018-09-15T04:54:37.602Z,55.14
2018-09-15T04:55:12.846Z,55.12
2018-09-15T04:55:48.125Z,55.59
2018-09-15T04:56:23.667Z,55.70
2018-09-15T04:56:58.929Z,55.70
2018-09-15T04:57:34.155Z,55.49
2018-09-15T04:58:09.358Z,55.29
2018-09-15T04:58:44.625Z,55.06
2018-09-15T04:59:20.162Z,55.30
2018-09-15T04:59:55.472Z,55.23
2018-09-15T05:00:30.840Z,55.12
2018-09-15T05:01:06.468Z,55.32
2018-09-15T05:01:41.685Z,55.45
2018-09-15T05:02:16.946Z,55.21
2018-09-15T05:02:52.399Z,55.22
2018-09-15T05:03:27.930Z,55.40
2018-09-15T05:04:03.145Z,55.28
2018-09-15T05:04:38.341Z,55.06
2018-09-15T05:05:13.695Z,55.01
2018-09-15T05:05:49.039Z,55.26
2018-09-15T05:06:24.788Z,54.98
2018-09-15T05:07:00.106Z,55.14
2018-09-15T05:07:35.310Z,55.38
2018-09-15T05:08:10.529Z,54.98
2018-09-15T05:08:45.667Z,54.96
2018-09-15T05:09:21.315Z,55.09
2018-09-15T05:09:56.679Z,55.46
2018-09-15T05:10:32.217Z,55.31
2018-09-15T05:11:07.493Z,55.31
2018-09-15T05:11:42.963Z,55.03
2018-09-15T05:12:18.254Z,55.24
2018-09-15T05:12:53.610Z,55.15
2018-09-15T05:13:28.509Z,55.38
2018-09-15T05:14:03.727Z,55.22
2018-09-15T05:14:38.932Z,54.81
2018-09-15T05:15:13.550Z,54.83
2018-09-15T05:15:48.655Z,54.91
2018-09-15T05:16:24.030Z,54.86
2018-09-15T05:16:59.533Z,54.76
2018-09-15T05:17:34.150Z,54.74
2018-09-15T05:18:09.422Z,55.03
2018-09-15T05:18:44.597Z,54.73
2018-09-15T05:19:20.515Z,54.65
2018-09-15T05:19:55.377Z,54.71
2018-09-15T05:20:30.608Z,54.64
2018-09-15T05:21:06.182Z,54.54
2018-09-15T05:21:41.426Z,54.96
2018-09-15T05:22:16.719Z,55.30
2018-09-15T05:22:52.272Z,55.26
2018-09-15T05:23:27.706Z,54.72
2018-09-15T05:24:02.394Z,54.89
2018-09-15T05:24:37.577Z,54.69
2018-09-15T05:25:12.219Z,54.63
2018-09-15T05:25:47.492Z,54.53
2018-09-15T05:26:22.791Z,54.54
2018-09-15T05:26:58.063Z,54.94
2018-09-15T05:27:33.323Z,54.60
2018-09-15T05:28:08.566Z,54.70
2018-09-15T05:28:43.769Z,54.61
2018-09-15T05:29:19.254Z,54.50
2018-09-15T05:29:54.510Z,54.29
2018-09-15T05:30:29.375Z,54.82
2018-09-15T05:31:04.662Z,55.07
2018-09-15T05:31:39.975Z,54.63
2018-09-15T05:32:15.286Z,55.07
2018-09-15T05:32:50.886Z,54.81
2018-09-15T05:33:26.289Z,54.21
2018-09-15T05:34:01.488Z,54.51
2018-09-15T05:34:36.891Z,54.69
2018-09-15T05:35:12.098Z,54.65
2018-09-15T05:35:47.289Z,54.65
2018-09-15T05:36:22.760Z,54.88
2018-09-15T05:36:57.624Z,54.63
2018-09-15T05:37:32.917Z,54.63
2018-09-15T05:38:07.776Z,54.82
2018-09-15T05:38:43.326Z,54.44
2018-09-15T05:39:18.655Z,54.77
2018-09-15T05:39:54.007Z,54.42
2018-09-15T05:40:29.510Z,54.33
2018-09-15T05:41:04.772Z,54.43
2018-09-15T05:41:40.002Z,54.56
2018-09-15T05:42:15.166Z,54.78
2018-09-15T05:42:50.522Z,55.12
2018-09-15T05:43:25.835Z,55.07
2018-09-15T05:44:01.131Z,54.88
2018-09-15T05:44:36.417Z,54.75
2018-09-15T05:45:11.607Z,55.00
2018-09-15T05:45:46.832Z,55.04
2018-09-15T05:46:22.398Z,54.92
2018-09-15T05:46:57.702Z,54.63
2018-09-15T05:47:32.948Z,54.61
2018-09-15T05:48:08.292Z,55.12
2018-09-15T05:48:43.500Z,54.63
2018-09-15T05:49:19.260Z,54.28
2018-09-15T05:49:54.655Z,54.29
2018-09-15T05:50:30.428Z,54.79
2018-09-15T05:51:05.615Z,54.53
2018-09-15T05:51:40.823Z,54.42
2018-09-15T05:52:16.026Z,54.67
2018-09-15T05:52:51.234Z,54.33
2018-09-15T05:53:26.136Z,54.52
2018-09-15T05:54:01.394Z,54.23
2018-09-15T05:54:36.953Z,54.80
2018-09-15T05:55:12.607Z,54.83
2018-09-15T05:55:47.934Z,54.62
2018-09-15T05:56:23.353Z,54.83
2018-09-15T05:56:59.139Z,54.70
2018-09-15T05:57:34.334Z,54.69
2018-09-15T05:58:09.708Z,54.79
2018-09-15T05:58:44.906Z,54.52
2018-09-15T05:59:20.385Z,54.56
2018-09-15T05:59:55.690Z,54.43
2018-09-15T06:00:31.130Z,54.34
2018-09-15T06:01:07.226Z,54.38
2018-09-15T06:01:42.493Z,54.50
2018-09-15T06:02:17.843Z,54.52
2018-09-15T06:02:53.637Z,54.25
2018-09-15T06:03:28.937Z,54.39
2018-09-15T06:04:04.227Z,54.28
2018-09-15T06:04:39.454Z,54.29
2018-09-15T06:05:14.625Z,54.11
2018-09-15T06:05:50.415Z,53.94
2018-09-15T06:06:25.931Z,54.34
2018-09-15T06:07:01.490Z,53.99
2018-09-15T06:07:36.835Z,54.19
2018-09-15T06:08:12.293Z,54.15
2018-09-15T06:08:47.506Z,54.14
2018-09-15T06:09:22.688Z,53.94
2018-09-15T06:09:58.152Z,54.10
2018-09-15T06:10:33.362Z,53.89
2018-09-15T06:11:08.628Z,54.05
2018-09-15T06:11:43.860Z,53.81
2018-09-15T06:12:19.233Z,53.72
2018-09-15T06:12:54.604Z,53.60
2018-09-15T06:13:30.025Z,54.07
2018-09-15T06:14:05.845Z,54.01
2018-09-15T06:14:41.050Z,54.23
2018-09-15T06:15:16.290Z,53.73
2018-09-15T06:15:52.574Z,54.15
2018-09-15T06:16:27.961Z,54.16
2018-09-15T06:17:03.300Z,53.80
2018-09-15T06:17:38.512Z,53.35
2018-09-15T06:18:13.691Z,53.75
2018-09-15T06:18:49.339Z,53.84
2018-09-15T06:19:25.033Z,53.69
2018-09-15T06:20:00.391Z,54.15
2018-09-15T06:20:35.630Z,53.72
2018-09-15T06:21:10.883Z,53.45
2018-09-15T06:21:46.082Z,53.79
2018-09-15T06:22:21.412Z,53.62
2018-09-15T06:22:56.998Z,53.54
2018-09-15T06:23:32.653Z,53.46
2018-09-15T06:24:07.904Z,53.44
2018-09-15T06:24:42.645Z,53.18
2018-09-15T06:25:18.087Z,52.72
2018-09-15T06:25:53.825Z,53.28
2018-09-15T06:26:29.746Z,52.75
2018-09-15T06:27:05.014Z,52.61
2018-09-15T06:27:40.237Z,52.63
2018-09-15T06:28:15.454Z,52.50
2018-09-15T06:28:50.923Z,52.59
2018-09-15T06:29:26.484Z,52.65
2018-09-15T06:30:01.709Z,52.64
2018-09-15T06:30:36.909Z,52.64
2018-09-15T06:31:12.094Z,52.82
2018-09-15T06:31:47.346Z,52.75
2018-09-15T06:32:22.721Z,52.43
2018-09-15T06:32:58.092Z,52.08
2018-09-15T06:33:33.346Z,52.11
2018-09-15T06:34:08.583Z,52.51
2018-09-15T06:34:43.390Z,52.84
2018-09-15T06:35:19.187Z,52.32
2018-09-15T06:35:54.617Z,52.69
2018-09-15T06:36:30.069Z,52.53
2018-09-15T06:37:05.824Z,52.10
2018-09-15T06:37:41.079Z,52.51
2018-09-15T06:38:16.254Z,52.15
2018-09-15T06:38:51.652Z,52.48
2018-09-15T06:39:27.254Z,51.93
2018-09-15T06:40:02.666Z,52.16
2018-09-15T06:40:38.222Z,51.92
2018-09-15T06:41:13.425Z,51.62
2018-09-15T06:41:48.712Z,51.36
2018-09-15T06:42:24.266Z,51.18
2018-09-15T06:42:59.471Z,51.49
2018-09-15T06:43:34.641Z,51.25
2018-09-15T06:44:09.845Z,51.51
2018-09-15T06:44:45.072Z,51.08
2018-09-15T06:45:21.256Z,51.50
2018-09-15T06:45:57.069Z,51.15
2018-09-15T06:46:32.406Z,51.23
2018-09-15T06:47:07.733Z,51.53
2018-09-15T06:47:42.910Z,51.96
2018-09-15T06:48:18.157Z,51.82
2018-09-15T06:48:53.691Z,52.22
2018-09-15T06:49:29.385Z,52.06
2018-09-15T06:50:04.993Z,51.81
2018-09-15T06:50:40.231Z,51.76
2018-09-15T06:51:15.448Z,52.04
2018-09-15T06:51:50.634Z,51.61
2018-09-15T06:52:25.849Z,51.57
2018-09-15T06:53:01.030Z,51.70
2018-09-15T06:53:36.220Z,51.66
2018-09-15T06:54:11.638Z,50.99
2018-09-15T06:54:46.830Z,50.98
2018-09-15T06:55:22.710Z,51.17
2018-09-15T06:55:57.969Z,51.42
2018-09-15T06:56:33.172Z,51.33
2018-09-15T06:57:08.402Z,51.39
2018-09-15T06:57:43.646Z,51.18
2018-09-15T06:58:19.000Z,50.92
2018-09-15T06:58:54.369Z,50.83
2018-09-15T06:59:30.265Z,51.15
2018-09-15T07:00:05.868Z,50.74
2018-09-15T07:00:41.114Z,51.22
2018-09-15T07:01:16.478Z,51.08
2018-09-15T07:01:52.174Z,50.45
2018-09-15T07:02:27.454Z,50.94
2018-09-15T07:03:02.790Z,50.87
2018-09-15T07:03:37.984Z,50.57
2018-09-15T07:04:13.559Z,50.30
2018-09-15T07:04:49.191Z,50.38
2018-09-15T07:05:24.469Z,50.54
2018-09-15T07:05:59.698Z,50.19
2018-09-15T07:06:34.874Z,50.61
2018-09-15T07:07:10.077Z,50.33
2018-09-15T07:07:45.251Z,50.61
2018-09-15T07:08:21.314Z,50.25
2018-09-15T07:08:56.561Z,49.96
2018-09-15T07:09:31.861Z,49.85
2018-09-15T07:10:07.033Z,50.45
2018-09-15T07:11:45.606Z,50.34
2018-09-15T07:12:21.018Z,50.41
2018-09-15T07:12:56.317Z,50.14
2018-09-15T07:13:31.778Z,50.25
2018-09-15T07:14:07.173Z,50.21
2018-09-15T07:14:42.403Z,49.78
2018-09-15T07:15:17.608Z,49.80
2018-09-15T07:15:53.057Z,49.96
2018-09-15T07:16:28.307Z,49.59
2018-09-15T07:17:03.900Z,49.52
2018-09-15T07:17:39.070Z,48.64
2018-09-15T07:18:14.455Z,49.60
2018-09-15T07:18:49.715Z,49.39
2018-09-15T07:19:25.169Z,49.66
2018-09-15T07:20:00.498Z,50.23
2018-09-15T07:20:35.944Z,49.94
2018-09-15T07:21:10.732Z,49.22
2018-09-15T07:21:45.914Z,49.38
2018-09-15T07:22:21.386Z,50.17
2018-09-15T07:22:56.902Z,49.63
2018-09-15T07:23:32.739Z,48.86
2018-09-15T07:24:08.323Z,49.61
2018-09-15T07:24:43.535Z,49.22
2018-09-15T07:25:19.026Z,49.88
2018-09-15T07:25:54.832Z,49.94
2018-09-15T07:26:31.027Z,49.58
2018-09-15T07:27:06.238Z,48.88
2018-09-15T07:27:41.441Z,49.43
2018-09-15T07:28:16.638Z,48.97
2018-09-15T07:28:52.293Z,49.07
2018-09-15T07:29:27.657Z,48.25
2018-09-15T07:30:03.107Z,48.36
2018-09-15T07:30:38.324Z,47.85
2018-09-15T07:31:13.727Z,48.03
2018-09-15T07:31:49.431Z,48.45
2018-09-15T07:32:25.346Z,48.15
2018-09-15T07:33:00.642Z,48.69
2018-09-15T07:33:35.947Z,48.96
2018-09-15T07:34:11.146Z,48.97
2018-09-15T07:34:46.675Z,48.48
2018-09-15T07:35:22.347Z,48.17
2018-09-15T07:35:57.727Z,48.58
2018-09-15T07:36:32.938Z,48.48